Home   Weather   Uzbekistan   Nukus   Past weeks
Flag for Uzbekistan

Past Weather in Nukus, Uzbekistan — Yesterday and Last 2 Weeks

Currently: 82 °F. Clear. (Weather station: Nukus / Karakalpakstan, Uzbekistan). See more current weather

Past Weather in Nukus — Graph

°F

Nukus Temperature Yesterday

Maximum temperature yesterday: 99 °F (at 3:00 pm)
Minimum temperature yesterday: 75 °F (at 2:30 am)
Average temperature yesterday: 88 °F

High & Low Weather Summary for the Past Weeks

 TemperatureHumidityPressure
High102 °F (Jul 11, 5:00 pm)83% (Jul 8, 1:00 am)29.86 "Hg (Jul 8, 1:00 am)
Low70 °F (Jul 6, 5:30 am)13% (Jul 10, 4:00 pm)29.47 "Hg (Jul 14, 4:00 pm)
Average85 °F35%29.67 "Hg
* Reported Jul 6 2:00 am — Jul 21 2:30 am, Nukus. Weather by CustomWeather, © 2024

Note: Actual official high and low records may vary slightly from our data, if they occured in-between our weather recording intervals... More about our weather records

Nukus Weather History for the Previous 24 Hours

Scroll right to see more
 ConditionsComfort  
Time TempWeatherWind HumidityBarometerVisibility
2:30 am
Sun, Jul 21
86 °FClear.7 mph31%29.62 "Hg10 mi
2:00 am86 °FClear.9 mph31%29.62 "Hg10 mi
12:30 am84 °FClear.5 mph35%29.65 "Hg10 mi
12:00 am86 °FClear.7 mph33%29.65 "Hg10 mi
11:30 pm
Sat, Jul 20
88 °FClear.7 mph29%29.65 "Hg10 mi
11:00 pm86 °FClear.7 mph31%29.65 "Hg10 mi
10:30 pm88 °FClear.5 mph31%29.65 "Hg10 mi
10:00 pm90 °FClear.5 mph27%29.62 "Hg10 mi
9:30 pm90 °FSunny.5 mph26%29.62 "Hg10 mi
9:00 pm91 °FSunny.5 mph24%29.62 "Hg10 mi
8:30 pm93 °FSunny.5 mph21%29.62 "Hg10 mi
8:00 pm97 °FSunny.5 mph18%29.62 "Hg10 mi
7:30 pm97 °FSunny.5 mph18%29.62 "Hg10 mi
7:00 pm99 °FSunny.5 mph16%29.62 "Hg10 mi
5:30 pm99 °FSunny.7 mph15%29.62 "Hg10 mi
5:00 pm99 °FSunny.7 mph15%29.62 "Hg10 mi
4:30 pm99 °FSunny.9 mph16%29.62 "Hg10 mi
4:00 pm99 °FSunny.7 mph16%29.65 "Hg10 mi
3:30 pm99 °FSunny.9 mph16%29.65 "Hg10 mi
3:00 pm99 °FSunny.9 mph16%29.65 "Hg10 mi
2:30 pm97 °FSunny.9 mph17%29.65 "Hg10 mi
2:00 pm97 °FSunny.9 mph17%29.65 "Hg10 mi
1:30 pm97 °FSunny.9 mph16%29.65 "Hg10 mi
1:00 pm95 °FSunny.9 mph16%29.68 "Hg10 mi
12:30 pm95 °FSunny.9 mph18%29.68 "Hg10 mi
12:00 pm95 °FSunny.9 mph19%29.68 "Hg10 mi
11:30 am93 °FSunny.9 mph21%29.68 "Hg10 mi
11:00 am91 °FSunny.9 mph23%29.68 "Hg10 mi
10:30 am91 °FSunny.9 mph23%29.68 "Hg10 mi
10:00 am90 °FSunny.7 mph26%29.68 "Hg10 mi
9:30 am88 °FSunny.5 mph29%29.68 "Hg10 mi
9:00 am86 °FSunny.5 mph31%29.68 "Hg10 mi
8:30 am84 °FSunny.5 mph33%29.68 "Hg10 mi
8:00 am82 °FSunny.5 mph40%29.68 "Hg10 mi
7:30 am81 °FSunny.7 mph39%29.65 "Hg10 mi
7:00 am79 °FSunny.5 mph45%29.65 "Hg10 mi
6:30 am77 °FClear.7 mph47%29.65 "Hg10 mi
6:00 am75 °FClear.5 mph50%29.65 "Hg10 mi
5:30 am75 °FClear.5 mph54%29.65 "Hg10 mi
5:00 am77 °FClear.5 mph47%29.62 "Hg10 mi
4:30 am77 °FClear.5 mph47%29.62 "Hg10 mi
4:00 am75 °FClear.No wind54%29.62 "Hg10 mi
3:30 am75 °FClear.No wind54%29.62 "Hg10 mi
3:00 am75 °FClear.No wind54%29.62 "Hg10 mi
Weather by CustomWeather, © 2024

See weather overview